Dati Storici

Data ora Umidita' aria (%) Temperatura aria (°C) Rad globale (W/m²) Gonioanemometro (°) Tacoanemometro (m/s) Pioggia (mm)
03-11-2012 00:50 95.8 % 9.357 1.617 251.86 0.369 0
03-11-2012 00:40 95.4 % 9.279 1.476 285.841 -0.003 0
03-11-2012 00:30 95.1 % 9.203 1.412 303.311 0.183 0
03-11-2012 00:20 95.1 % 9.329 1.682 346.597 0.652 0
03-11-2012 00:10 94.7 % 9.188 1.515 346.05 -0.003 0
03-11-2012 00:00 94.9 % 9.441 1.758 14.431 0.374 0
02-11-2012 23:50 95.2 % 9.732 2.233 69.495 1.104 0
02-11-2012 23:40 96 % 10.505 1.682 347.703 0.329 0
02-11-2012 23:30 95.7 % 10.279 1.63 256.324 0.139 0
02-11-2012 23:20 95.4 % 10.096 1.579 258.645 0.274 0
02-11-2012 23:10 95.4 % 10.122 1.823 27.546 0.603 0
02-11-2012 23:00 94.9 % 9.874 1.72 291.256 0.842 0
02-11-2012 22:50 94 % 9.737 1.887 305.618 0.97 0
02-11-2012 22:40 92.9 % 9.445 1.296 252.541 0.118 0
02-11-2012 22:30 93.2 % 9.802 1.758 131.2 0.231 0
02-11-2012 22:20 92.7 % 9.768 1.476 105.304 0.431 0
02-11-2012 22:10 92.4 % 9.907 1.347 1.17 -0.001 0
02-11-2012 22:00 92.9 % 10.347 1.925 61.03 0.407 0
02-11-2012 21:50 93.6 % 10.825 1.566 7.885 1.438 0
02-11-2012 21:40 92.8 % 10.325 1.476 295.48 -0.003 0

I dati sono presentati in modo automatico a scopo informativo. In seguito a verifica i dati possono subire modifiche o essere invalidati e non riportati negli archivi definitivi.